createdAt,value
2019-05-29T00:01:53.040Z,15.40
2019-05-29T00:04:23.407Z,15.42
2019-05-29T00:06:54.859Z,15.39
2019-05-29T00:09:25.275Z,15.37
2019-05-29T00:11:55.746Z,15.37
2019-05-29T00:14:27.559Z,15.48
2019-05-29T00:17:00.014Z,15.35
2019-05-29T00:19:30.373Z,15.28
2019-05-29T00:22:00.723Z,15.24
2019-05-29T00:24:31.080Z,15.22
2019-05-29T00:27:01.421Z,14.99
2019-05-29T00:29:31.778Z,14.99
2019-05-29T00:32:02.131Z,15.00
2019-05-29T00:34:32.443Z,14.88
2019-05-29T00:37:02.809Z,14.81
2019-05-29T00:39:33.164Z,14.70
2019-05-29T00:42:03.459Z,14.80
2019-05-29T00:44:34.829Z,14.63
2019-05-29T00:47:05.398Z,14.66
2019-05-29T00:49:35.717Z,14.69
2019-05-29T00:52:06.038Z,14.76
2019-05-29T00:54:36.367Z,14.73
2019-05-29T00:57:06.708Z,14.75
2019-05-29T00:59:37.251Z,14.71
2019-05-29T01:02:07.631Z,14.67
2019-05-29T01:04:37.965Z,14.72
2019-05-29T01:07:10.096Z,14.62
2019-05-29T01:09:40.673Z,14.59
2019-05-29T01:12:11.011Z,14.58
2019-05-29T01:14:49.525Z,14.57
2019-05-29T01:17:13.714Z,14.55
2019-05-29T01:19:44.286Z,14.48
2019-05-29T01:22:14.639Z,14.48
2019-05-29T01:24:44.992Z,14.41
2019-05-29T01:27:15.351Z,14.44
2019-05-29T01:29:45.745Z,14.41
2019-05-29T01:32:17.287Z,14.35
2019-05-29T01:34:48.377Z,14.41
2019-05-29T01:37:20.219Z,14.40
2019-05-29T01:39:50.703Z,14.36
2019-05-29T01:42:21.502Z,14.27
2019-05-29T01:45:06.689Z,14.31
2019-05-29T01:47:24.005Z,14.22
2019-05-29T01:49:54.343Z,14.23
2019-05-29T01:52:24.781Z,14.23
2019-05-29T01:54:55.109Z,14.28
2019-05-29T01:57:25.457Z,14.29
2019-05-29T01:59:55.804Z,14.35
2019-05-29T02:02:26.154Z,14.36
2019-05-29T02:04:56.547Z,14.35
2019-05-29T02:07:28.184Z,14.42
2019-05-29T02:09:59.025Z,14.37
2019-05-29T02:12:29.625Z,14.39
2019-05-29T02:14:59.983Z,14.34
2019-05-29T02:17:30.297Z,14.36
2019-05-29T02:20:00.685Z,14.23
2019-05-29T02:22:31.060Z,14.19
2019-05-29T02:25:01.455Z,14.19
2019-05-29T02:27:31.901Z,14.15
2019-05-29T02:30:02.271Z,14.24
2019-05-29T02:32:33.004Z,14.21
2019-05-29T02:35:03.519Z,14.34
2019-05-29T02:37:33.868Z,14.29
2019-05-29T02:40:04.965Z,14.23
2019-05-29T02:42:35.351Z,14.14
2019-05-29T02:45:06.287Z,14.18
2019-05-29T02:47:36.690Z,14.10
2019-05-29T02:50:07.712Z,14.01
2019-05-29T02:52:38.034Z,13.90
2019-05-29T02:55:08.399Z,13.89
2019-05-29T02:57:38.708Z,13.92
2019-05-29T03:00:09.279Z,13.87
2019-05-29T03:02:39.718Z,13.92
2019-05-29T03:05:10.230Z,13.92
2019-05-29T03:07:40.993Z,13.90
2019-05-29T03:10:11.630Z,13.86
2019-05-29T03:12:41.993Z,13.81
2019-05-29T03:15:12.325Z,13.84
2019-05-29T03:17:42.732Z,13.83
2019-05-29T03:20:13.070Z,13.72
2019-05-29T03:22:43.405Z,13.63
2019-05-29T03:25:13.751Z,13.56
2019-05-29T03:27:44.105Z,13.59
2019-05-29T03:30:14.866Z,13.53
2019-05-29T03:32:48.408Z,13.56
2019-05-29T03:35:17.240Z,13.50
2019-05-29T03:37:48.982Z,13.47
2019-05-29T03:40:19.748Z,13.43
2019-05-29T03:42:50.255Z,13.46
2019-05-29T03:45:22.275Z,13.40
2019-05-29T03:47:54.857Z,13.35
2019-05-29T03:50:29.040Z,13.41
2019-05-29T03:52:59.592Z,13.39
2019-05-29T03:55:31.570Z,13.38
2019-05-29T03:58:02.540Z,13.38
2019-05-29T04:00:41.740Z,13.39
2019-05-29T04:03:08.194Z,13.37
2019-05-29T04:05:39.483Z,13.35
2019-05-29T04:08:11.033Z,13.41
2019-05-29T04:10:42.284Z,13.40
2019-05-29T04:13:12.772Z,13.29
2019-05-29T04:15:44.077Z,13.30
2019-05-29T04:18:19.734Z,13.25
2019-05-29T04:21:02.558Z,13.22
2019-05-29T04:23:36.375Z,13.24
2019-05-29T04:26:11.225Z,13.21
2019-05-29T04:28:42.359Z,13.21
2019-05-29T04:31:13.362Z,13.16
2019-05-29T04:33:46.641Z,13.13
2019-05-29T04:36:18.182Z,13.01
2019-05-29T04:38:48.899Z,13.05
2019-05-29T04:41:19.597Z,13.08
2019-05-29T04:43:49.993Z,12.98
2019-05-29T04:46:20.405Z,12.97
2019-05-29T04:48:50.886Z,12.81
2019-05-29T04:51:21.309Z,12.79
2019-05-29T04:53:51.655Z,12.76
2019-05-29T04:56:22.257Z,12.65
2019-05-29T04:58:52.617Z,12.66
2019-05-29T05:01:23.099Z,12.62
2019-05-29T05:03:53.493Z,12.53
2019-05-29T05:06:23.865Z,12.54
2019-05-29T05:08:54.189Z,12.59
2019-05-29T05:11:24.613Z,12.63
2019-05-29T05:13:54.973Z,12.80
2019-05-29T05:16:25.338Z,12.68
2019-05-29T05:18:55.701Z,12.70
2019-05-29T05:21:26.065Z,12.83
2019-05-29T05:23:56.609Z,12.77
2019-05-29T05:26:26.973Z,12.67
2019-05-29T05:28:57.341Z,12.65
2019-05-29T05:31:27.700Z,12.54
2019-05-29T05:33:58.022Z,12.52
2019-05-29T05:36:28.687Z,12.50
2019-05-29T05:38:59.054Z,12.57
2019-05-29T05:41:30.667Z,12.55
2019-05-29T05:44:01.280Z,12.59
2019-05-29T05:46:32.857Z,12.66
2019-05-29T05:49:03.347Z,12.71
2019-05-29T05:51:37.035Z,12.82
2019-05-29T05:54:05.793Z,12.99
2019-05-29T05:56:37.609Z,13.08
2019-05-29T05:59:08.170Z,13.17
2019-05-29T06:01:39.924Z,13.23
2019-05-29T06:04:10.699Z,13.26
2019-05-29T06:06:42.244Z,13.31
2019-05-29T06:09:12.687Z,13.32
2019-05-29T06:11:43.046Z,13.39
2019-05-29T06:14:13.519Z,13.39
2019-05-29T06:16:43.843Z,13.60
2019-05-29T06:19:14.169Z,13.58
2019-05-29T06:21:44.522Z,13.70
2019-05-29T06:24:14.899Z,13.74
2019-05-29T06:26:45.249Z,13.76
2019-05-29T06:29:15.612Z,13.94
2019-05-29T06:31:45.968Z,13.97
2019-05-29T06:34:16.375Z,14.17
2019-05-29T06:36:48.237Z,14.06
2019-05-29T06:39:18.753Z,14.14
2019-05-29T06:41:49.085Z,14.30
2019-05-29T06:44:19.797Z,14.27
2019-05-29T06:46:50.281Z,14.23
2019-05-29T06:49:20.679Z,14.42
2019-05-29T06:51:51.118Z,14.53
2019-05-29T06:54:21.486Z,14.59
2019-05-29T06:56:52.951Z,14.55
2019-05-29T06:59:23.290Z,14.69
2019-05-29T07:01:53.643Z,14.66
2019-05-29T07:04:24.015Z,14.82
2019-05-29T07:06:54.350Z,14.93
2019-05-29T07:09:24.724Z,15.05
2019-05-29T07:11:55.049Z,14.95
2019-05-29T07:14:25.426Z,14.87
2019-05-29T07:16:56.459Z,14.64
2019-05-29T07:19:45.368Z,14.77
2019-05-29T07:21:59.377Z,14.86
2019-05-29T07:24:29.844Z,15.04
2019-05-29T07:27:00.288Z,14.90
2019-05-29T07:29:30.638Z,14.98
2019-05-29T07:32:01.240Z,15.17
2019-05-29T07:34:47.421Z,15.20
2019-05-29T07:37:03.610Z,15.35
2019-05-29T07:39:33.945Z,15.47
2019-05-29T07:42:04.332Z,15.63
2019-05-29T07:44:34.679Z,15.49
2019-05-29T07:47:05.128Z,15.64
2019-05-29T07:49:39.074Z,15.64
2019-05-29T07:52:07.543Z,15.62
2019-05-29T07:54:39.822Z,15.94
2019-05-29T07:57:10.473Z,16.05
2019-05-29T07:59:40.915Z,16.30
2019-05-29T08:02:11.239Z,16.31
2019-05-29T08:04:42.935Z,16.41
2019-05-29T08:07:13.411Z,16.33
2019-05-29T08:09:43.864Z,16.26
2019-05-29T08:12:14.523Z,16.18
2019-05-29T08:14:45.838Z,16.52
2019-05-29T08:17:16.369Z,16.87
2019-05-29T08:20:03.118Z,17.26
2019-05-29T08:22:33.385Z,17.47
2019-05-29T08:24:51.243Z,17.52
2019-05-29T08:27:21.667Z,17.75
2019-05-29T08:29:52.124Z,17.80
2019-05-29T08:32:22.516Z,17.88
2019-05-29T08:34:52.946Z,17.73
2019-05-29T08:37:23.357Z,17.39
2019-05-29T08:39:54.798Z,17.24
2019-05-29T08:42:26.179Z,16.97
2019-05-29T08:44:56.623Z,16.84
2019-05-29T08:47:26.985Z,16.70
2019-05-29T08:50:16.697Z,16.87
2019-05-29T08:52:29.763Z,17.28
2019-05-29T08:55:00.118Z,17.66
2019-05-29T08:57:30.477Z,18.11
2019-05-29T09:00:00.903Z,18.26
2019-05-29T09:02:31.315Z,17.92
2019-05-29T09:05:01.998Z,17.61
2019-05-29T09:07:32.776Z,17.23
2019-05-29T09:10:03.265Z,16.99
2019-05-29T09:12:33.739Z,17.65
2019-05-29T09:15:04.750Z,18.14
2019-05-29T09:17:35.098Z,18.18
2019-05-29T09:20:06.207Z,17.93
2019-05-29T09:22:36.533Z,17.59
2019-05-29T09:25:07.333Z,17.57
2019-05-29T09:27:37.717Z,17.46
2019-05-29T09:30:09.053Z,17.10
2019-05-29T09:32:50.501Z,16.85
2019-05-29T09:35:11.470Z,16.79
2019-05-29T09:37:41.843Z,16.76
2019-05-29T09:40:19.071Z,16.59
2019-05-29T09:42:49.587Z,16.39
2019-05-29T09:45:19.948Z,16.30
2019-05-29T09:47:50.384Z,16.05
2019-05-29T09:50:23.367Z,15.87
2019-05-29T09:52:54.866Z,15.75
2019-05-29T09:55:25.056Z,15.70
2019-05-29T09:57:56.848Z,15.82
2019-05-29T10:00:27.371Z,15.84
2019-05-29T10:02:57.795Z,15.81
2019-05-29T10:05:28.845Z,15.86
2019-05-29T10:07:59.827Z,15.85
2019-05-29T10:10:30.373Z,15.83
2019-05-29T10:13:02.715Z,15.86
2019-05-29T10:15:32.866Z,15.80
2019-05-29T10:18:07.395Z,15.78
2019-05-29T10:20:35.441Z,15.75
2019-05-29T10:23:05.887Z,15.78
2019-05-29T10:25:36.318Z,15.83
2019-05-29T10:28:06.705Z,15.76
2019-05-29T10:30:37.123Z,15.71
2019-05-29T10:33:07.541Z,15.72
2019-05-29T10:35:38.491Z,15.76
2019-05-29T10:38:08.941Z,15.74
2019-05-29T10:40:39.700Z,15.73
2019-05-29T10:43:10.147Z,15.64
2019-05-29T10:45:40.590Z,15.53
2019-05-29T10:48:10.996Z,15.59
2019-05-29T10:50:41.391Z,15.46
2019-05-29T10:53:11.732Z,15.44
2019-05-29T10:55:42.161Z,15.49
2019-05-29T10:58:12.519Z,15.41
2019-05-29T11:00:42.842Z,15.27
2019-05-29T11:03:13.183Z,15.22
2019-05-29T11:05:43.529Z,15.09
2019-05-29T11:08:13.996Z,15.08
2019-05-29T11:10:44.413Z,15.03
2019-05-29T11:13:14.765Z,15.10
2019-05-29T11:15:46.467Z,15.10
2019-05-29T11:18:17.013Z,15.04
2019-05-29T11:20:47.459Z,14.92
2019-05-29T11:23:18.525Z,14.90
2019-05-29T11:25:49.898Z,15.02
2019-05-29T11:28:20.285Z,14.95
2019-05-29T11:30:52.288Z,15.01
2019-05-29T11:33:23.080Z,15.14
2019-05-29T11:36:04.429Z,15.12
2019-05-29T11:38:25.637Z,15.17
2019-05-29T11:41:20.242Z,15.16
2019-05-29T11:43:28.694Z,15.17
2019-05-29T11:45:59.635Z,15.15
2019-05-29T11:48:30.153Z,15.09
2019-05-29T11:51:00.507Z,15.26
2019-05-29T11:53:30.888Z,15.37
2019-05-29T11:56:03.515Z,15.36
2019-05-29T11:58:34.124Z,15.29
2019-05-29T12:01:04.591Z,15.41
2019-05-29T12:03:36.003Z,15.36
2019-05-29T12:06:06.807Z,15.53
2019-05-29T12:08:37.169Z,15.57
2019-05-29T12:11:07.544Z,15.77
2019-05-29T12:13:37.850Z,15.97
2019-05-29T12:16:08.211Z,16.12
2019-05-29T12:18:38.593Z,16.28
2019-05-29T12:21:08.995Z,16.33
2019-05-29T12:23:39.364Z,16.46
2019-05-29T12:26:21.501Z,16.56
2019-05-29T12:28:41.848Z,16.58
2019-05-29T12:31:12.239Z,16.54
2019-05-29T12:33:42.606Z,16.42
2019-05-29T12:36:13.065Z,16.37
2019-05-29T12:38:43.552Z,16.13
2019-05-29T12:41:14.016Z,16.17
2019-05-29T12:43:44.383Z,16.18
2019-05-29T12:46:14.883Z,16.49
2019-05-29T12:48:45.265Z,16.85
2019-05-29T12:51:15.652Z,17.07
2019-05-29T12:53:46.137Z,17.74
2019-05-29T12:56:17.974Z,18.33
2019-05-29T12:58:48.340Z,18.66
2019-05-29T13:01:18.749Z,18.54
2019-05-29T13:03:49.079Z,18.58
2019-05-29T13:06:19.455Z,18.52
2019-05-29T13:08:49.832Z,18.39
2019-05-29T13:11:20.217Z,18.09
2019-05-29T13:13:50.603Z,18.18
2019-05-29T13:16:21.030Z,18.39
2019-05-29T13:18:51.401Z,18.68
2019-05-29T13:21:21.749Z,18.89
2019-05-29T13:23:52.162Z,18.97
2019-05-29T13:26:22.593Z,18.75
2019-05-29T13:28:53.163Z,18.39
2019-05-29T13:31:23.634Z,17.82
2019-05-29T13:33:54.171Z,17.44
2019-05-29T13:36:24.573Z,17.13
2019-05-29T13:38:56.003Z,17.03
2019-05-29T13:41:26.567Z,17.07
2019-05-29T13:43:58.322Z,17.42
2019-05-29T13:46:28.824Z,17.85
2019-05-29T13:48:59.187Z,18.07
2019-05-29T13:51:29.729Z,18.22
2019-05-29T13:54:06.477Z,18.26
2019-05-29T13:56:32.185Z,18.14
2019-05-29T13:59:04.707Z,17.92
2019-05-29T14:01:34.791Z,18.16
2019-05-29T14:04:06.456Z,17.88
2019-05-29T14:06:37.295Z,17.95
2019-05-29T14:09:09.808Z,17.81
2019-05-29T14:11:40.608Z,17.73
2019-05-29T14:14:13.431Z,17.72
2019-05-29T14:16:46.933Z,17.95
2019-05-29T14:19:24.130Z,18.23
2019-05-29T14:21:58.291Z,18.52
2019-05-29T14:24:30.741Z,18.81
2019-05-29T14:27:01.660Z,18.87
2019-05-29T14:29:32.085Z,18.85
2019-05-29T14:32:05.059Z,18.85
2019-05-29T14:34:37.022Z,18.88
2019-05-29T14:37:07.973Z,19.13
2019-05-29T14:39:38.453Z,19.55
2019-05-29T14:42:10.096Z,19.51
2019-05-29T14:44:40.751Z,19.41
2019-05-29T14:47:13.293Z,19.13
2019-05-29T14:49:43.269Z,18.69
2019-05-29T14:52:13.654Z,18.57
2019-05-29T14:54:44.498Z,18.48
2019-05-29T14:57:25.216Z,18.45
2019-05-29T14:59:47.036Z,18.66
2019-05-29T15:02:23.567Z,18.92
2019-05-29T15:04:51.219Z,18.95
2019-05-29T15:07:22.910Z,18.98
2019-05-29T15:09:53.535Z,18.67
2019-05-29T15:12:24.063Z,18.29
2019-05-29T15:14:54.495Z,17.96
2019-05-29T15:17:24.831Z,17.87
2019-05-29T15:19:55.375Z,17.93
2019-05-29T15:22:25.850Z,18.06
2019-05-29T15:25:08.018Z,18.12
2019-05-29T15:27:28.983Z,18.26
2019-05-29T15:29:59.708Z,18.32
2019-05-29T15:32:30.145Z,18.31
2019-05-29T15:35:00.497Z,18.30
2019-05-29T15:37:30.961Z,18.18
2019-05-29T15:40:01.391Z,18.23
2019-05-29T15:42:31.852Z,18.23
2019-05-29T15:45:02.272Z,18.27
2019-05-29T15:47:32.709Z,18.18
2019-05-29T15:50:03.118Z,18.14
2019-05-29T15:52:33.708Z,18.10
2019-05-29T15:55:21.450Z,18.06
2019-05-29T15:57:37.411Z,18.14
2019-05-29T16:00:09.114Z,18.13
2019-05-29T16:02:39.782Z,18.07
2019-05-29T16:05:11.280Z,18.03
2019-05-29T16:07:41.906Z,18.05
2019-05-29T16:10:15.234Z,18.16
2019-05-29T16:12:45.057Z,18.09
2019-05-29T16:15:17.403Z,18.13
2019-05-29T16:17:47.997Z,18.00
2019-05-29T16:20:18.915Z,17.74
2019-05-29T16:22:49.321Z,17.59
2019-05-29T16:25:35.550Z,17.73
2019-05-29T16:27:52.170Z,17.75
2019-05-29T16:30:22.589Z,17.85
2019-05-29T16:32:55.247Z,17.80
2019-05-29T16:35:25.673Z,18.00
2019-05-29T16:37:56.269Z,17.91
2019-05-29T16:40:26.645Z,17.81
2019-05-29T16:42:57.029Z,17.78
2019-05-29T16:45:27.535Z,17.72
2019-05-29T16:47:59.459Z,17.54
2019-05-29T16:50:30.063Z,17.48
2019-05-29T16:53:00.479Z,17.26
2019-05-29T16:55:31.789Z,17.38
2019-05-29T16:58:02.340Z,17.20
2019-05-29T17:00:32.679Z,17.17
2019-05-29T17:03:03.019Z,17.16
2019-05-29T17:05:33.393Z,17.07
2019-05-29T17:08:03.790Z,17.03
2019-05-29T17:10:37.430Z,16.95
2019-05-29T17:13:08.092Z,17.01
2019-05-29T17:15:38.820Z,17.07
2019-05-29T17:18:09.611Z,16.99
2019-05-29T17:20:44.868Z,16.97
2019-05-29T17:23:17.005Z,16.95
2019-05-29T17:25:47.523Z,17.06
2019-05-29T17:28:22.778Z,17.04
2019-05-29T17:30:49.999Z,17.06
2019-05-29T17:33:21.181Z,17.01
2019-05-29T17:35:51.707Z,16.81
2019-05-29T17:38:23.288Z,16.62
2019-05-29T17:40:53.697Z,16.67
2019-05-29T17:43:27.029Z,16.63
2019-05-29T17:45:56.259Z,16.45
2019-05-29T17:48:26.724Z,16.51
2019-05-29T17:50:57.100Z,16.47
2019-05-29T17:53:27.535Z,16.50
2019-05-29T17:55:57.902Z,16.40
2019-05-29T17:58:28.602Z,16.21
2019-05-29T18:00:59.388Z,16.24
2019-05-29T18:03:29.750Z,16.23
2019-05-29T18:06:00.203Z,16.13
2019-05-29T18:08:30.609Z,16.04
2019-05-29T18:11:01.121Z,15.92
2019-05-29T18:13:31.525Z,15.92
2019-05-29T18:16:01.982Z,15.85
2019-05-29T18:18:32.371Z,15.82
2019-05-29T18:21:02.812Z,15.71
2019-05-29T18:23:33.204Z,15.57
2019-05-29T18:26:03.731Z,15.46
2019-05-29T18:28:34.073Z,15.38
2019-05-29T18:31:04.550Z,15.43
2019-05-29T18:33:34.921Z,15.43
2019-05-29T18:36:05.328Z,15.32
2019-05-29T18:38:35.713Z,15.43
2019-05-29T18:41:06.194Z,15.42
2019-05-29T18:43:36.520Z,15.32
2019-05-29T18:46:06.971Z,15.34
2019-05-29T18:48:37.464Z,15.24
2019-05-29T18:51:07.941Z,15.20
2019-05-29T18:53:38.741Z,15.09
2019-05-29T18:56:09.550Z,15.04
2019-05-29T18:58:39.939Z,15.09
2019-05-29T19:01:10.347Z,15.07
2019-05-29T19:03:40.839Z,14.96
2019-05-29T19:06:11.291Z,14.89
2019-05-29T19:08:42.862Z,14.87
2019-05-29T19:11:13.332Z,14.89
2019-05-29T19:13:43.713Z,14.85
2019-05-29T19:16:14.126Z,14.80
2019-05-29T19:18:44.595Z,14.80
2019-05-29T19:21:15.080Z,14.84
2019-05-29T19:23:45.452Z,14.78
2019-05-29T19:26:15.844Z,14.81
2019-05-29T19:28:46.497Z,14.84
2019-05-29T19:31:16.868Z,14.80
2019-05-29T19:33:47.298Z,14.85
2019-05-29T19:36:17.827Z,14.89
2019-05-29T19:38:48.495Z,14.88
2019-05-29T19:41:18.841Z,14.94
2019-05-29T19:43:49.213Z,14.91
2019-05-29T19:46:19.603Z,14.95
2019-05-29T19:48:49.985Z,14.93
2019-05-29T19:51:20.575Z,14.82
2019-05-29T19:53:52.524Z,14.85
2019-05-29T19:56:22.976Z,14.89
2019-05-29T19:58:53.569Z,14.84
2019-05-29T20:01:31.611Z,14.82
2019-05-29T20:03:56.294Z,14.77
2019-05-29T20:06:26.950Z,14.70
2019-05-29T20:08:57.340Z,14.70
2019-05-29T20:11:29.442Z,14.63
2019-05-29T20:13:59.982Z,14.67
2019-05-29T20:16:30.351Z,14.66
2019-05-29T20:19:00.793Z,14.68
2019-05-29T20:21:31.189Z,14.62
2019-05-29T20:24:01.815Z,14.56
2019-05-29T20:26:33.019Z,14.57
2019-05-29T20:29:03.425Z,14.59
2019-05-29T20:31:34.560Z,14.56
2019-05-29T20:34:05.006Z,14.54
2019-05-29T20:36:37.235Z,14.51
2019-05-29T20:39:08.530Z,14.50
2019-05-29T20:41:43.560Z,14.43
2019-05-29T20:44:14.137Z,14.52
2019-05-29T20:46:44.520Z,14.39
2019-05-29T20:49:15.026Z,14.35
2019-05-29T20:51:47.375Z,14.24
2019-05-29T20:54:17.774Z,14.19
2019-05-29T20:56:48.839Z,14.07
2019-05-29T20:59:19.658Z,14.10
2019-05-29T21:01:50.042Z,14.14
2019-05-29T21:04:20.386Z,14.08
2019-05-29T21:06:50.864Z,14.09
2019-05-29T21:09:22.589Z,14.01
2019-05-29T21:11:52.969Z,13.96
2019-05-29T21:14:23.325Z,13.92
2019-05-29T21:16:53.770Z,13.88
2019-05-29T21:19:24.150Z,13.80
2019-05-29T21:21:56.978Z,13.76
2019-05-29T21:24:29.213Z,13.75
2019-05-29T21:26:59.751Z,13.80
2019-05-29T21:29:30.234Z,13.80
2019-05-29T21:32:00.740Z,13.80
2019-05-29T21:34:31.099Z,13.81
2019-05-29T21:37:01.488Z,13.77
2019-05-29T21:39:33.050Z,13.73
2019-05-29T21:42:03.393Z,13.61
2019-05-29T21:44:33.750Z,13.59
2019-05-29T21:47:04.159Z,13.60
2019-05-29T21:49:34.549Z,13.69
2019-05-29T21:52:06.120Z,13.64
2019-05-29T21:54:37.345Z,13.63
2019-05-29T21:57:07.843Z,13.69
2019-05-29T21:59:39.591Z,13.72
2019-05-29T22:02:10.843Z,13.72
2019-05-29T22:04:42.294Z,13.61
2019-05-29T22:07:12.907Z,13.60
2019-05-29T22:09:43.345Z,13.57
2019-05-29T22:12:13.680Z,13.62
2019-05-29T22:14:45.181Z,13.62
2019-05-29T22:17:15.666Z,13.50
2019-05-29T22:19:46.063Z,13.49
2019-05-29T22:22:16.513Z,13.54
2019-05-29T22:24:46.957Z,13.49
2019-05-29T22:27:17.439Z,13.50
2019-05-29T22:29:48.026Z,13.45
2019-05-29T22:32:18.372Z,13.45
2019-05-29T22:34:48.758Z,13.58
2019-05-29T22:37:19.229Z,13.55
2019-05-29T22:39:49.587Z,13.66
2019-05-29T22:42:20.111Z,13.57
2019-05-29T22:44:51.614Z,13.46
2019-05-29T22:47:22.041Z,13.40
2019-05-29T22:49:53.714Z,13.38
2019-05-29T22:52:24.966Z,13.45
2019-05-29T22:54:55.807Z,13.42
2019-05-29T22:57:26.463Z,13.41
2019-05-29T22:59:57.937Z,13.47
2019-05-29T23:02:28.367Z,13.42
2019-05-29T23:04:58.854Z,13.39
2019-05-29T23:07:29.165Z,13.32
2019-05-29T23:10:00.620Z,13.25
2019-05-29T23:12:31.046Z,13.18
2019-05-29T23:15:02.655Z,13.17
2019-05-29T23:17:33.325Z,13.12
2019-05-29T23:20:04.290Z,13.15
2019-05-29T23:22:34.625Z,13.22
2019-05-29T23:25:05.450Z,13.16
2019-05-29T23:27:35.956Z,13.12
2019-05-29T23:30:06.785Z,13.01
2019-05-29T23:32:37.227Z,13.02
2019-05-29T23:35:07.566Z,13.04
2019-05-29T23:37:37.944Z,13.03
2019-05-29T23:40:08.906Z,12.98
2019-05-29T23:42:39.512Z,12.93
2019-05-29T23:45:10.184Z,12.91
2019-05-29T23:47:40.649Z,12.91
2019-05-29T23:50:10.972Z,12.92
2019-05-29T23:52:41.318Z,12.87
2019-05-29T23:55:11.672Z,12.86
2019-05-29T23:57:42.225Z,12.79
